Time;durP1;ratioP1;P1;durP2;ratioP2;P2;SDS_P1;SDS_P2;PMS_P1;PMS_P2;Temp;Humidity;BMP_temperature;BMP_pressure;BME280_temperature;BME280_humidity;BME280_pressure;Samples;Min_cycle;Max_cycle;Signal;HPM_P1;HPM_P2
2022/08/08 00:02:13;;;;;;;2.85;2.75;;;19.30;99.90;;;19.62;69.63;102429.19;5053323;28;20045;-59
2022/08/08 00:05:11;;;;;;;2.60;2.50;;;19.30;99.90;;;19.65;69.14;102439.88;5053819;28;20051;-59
2022/08/08 00:07:52;;;;;;;2.67;2.58;;;19.20;99.90;;;19.72;68.76;102441.53;5053741;28;20503;-58
2022/08/08 00:10:31;;;;;;;2.60;2.50;;;19.30;99.90;;;19.74;68.36;102437.03;5053935;28;20044;-59
2022/08/08 00:13:09;;;;;;;2.45;2.35;;;19.30;99.90;;;19.85;67.88;102436.84;5053681;28;20048;-59
2022/08/08 00:15:44;;;;;;;2.30;2.20;;;19.40;99.90;;;19.95;67.68;102437.56;5052648;28;20045;-59
2022/08/08 00:18:36;;;;;;;2.85;2.75;;;19.50;99.90;;;20.04;67.21;102437.41;5053589;28;20467;-59
2022/08/08 00:21:06;;;;;;;2.50;2.40;;;19.60;99.90;;;20.13;67.37;102432.75;5053564;28;20482;-59
2022/08/08 00:23:42;;;;;;;2.20;2.10;;;19.70;99.90;;;19.55;66.59;102430.19;5053702;28;20052;-59
2022/08/08 00:26:29;;;;;;;2.75;2.65;;;19.30;99.90;;;19.33;67.64;102425.19;5053673;28;20124;-59
2022/08/08 00:29:09;;;;;;;2.58;2.47;;;19.10;99.90;;;19.07;69.04;102420.19;5053574;28;20037;-59
2022/08/08 00:31:45;;;;;;;2.40;2.30;;;18.80;99.90;;;19.07;69.69;102420.19;5069020;28;20045;-59
2022/08/08 00:35:10;;;;;;;2.30;2.20;;;18.80;99.90;;;19.09;70.75;102420.16;5053611;28;20124;-59
2022/08/08 00:38:05;;;;;;;2.42;2.33;;;18.70;99.90;;;18.98;70.45;102419.44;5053484;28;20045;-58
2022/08/08 00:40:58;;;;;;;2.60;2.50;;;18.70;99.90;;;18.94;70.55;102413.22;5053503;28;20059;-59
2022/08/08 00:44:08;;;;;;;2.35;2.25;;;18.60;99.90;;;18.90;71.54;102409.72;5053317;28;20131;-59
2022/08/08 00:47:22;;;;;;;2.30;2.20;;;18.60;99.90;;;18.86;72.52;102415.13;5068823;28;20045;-59
2022/08/08 00:50:42;;;;;;;2.50;2.40;;;18.50;99.90;;;18.72;73.40;102409.94;5052936;28;20511;-59
2022/08/08 00:53:55;;;;;;;2.45;2.35;;;18.30;99.90;;;18.57;73.43;102411.94;5068721;28;20057;-59
2022/08/08 00:57:39;;;;;;;2.40;2.30;;;18.20;99.90;;;18.61;74.35;102401.16;5052276;28;20049;-59
2022/08/08 01:00:18;;;;;;;2.70;2.60;;;18.20;99.90;;;18.69;74.36;102401.06;5036877;28;20185;-59
2022/08/08 01:03:47;;;;;;;2.83;2.72;;;18.30;99.90;;;18.75;73.37;102407.25;5052972;28;20071;-59
2022/08/08 01:07:17;;;;;;;2.67;2.58;;;18.30;99.90;;;18.76;72.48;102406.31;5052105;28;20049;-59
2022/08/08 01:10:28;;;;;;;2.75;2.65;;;18.40;99.90;;;18.76;71.98;102411.69;5051803;28;20052;-59
2022/08/08 01:14:02;;;;;;;2.55;2.45;;;18.40;99.90;;;18.66;73.24;102399.31;5069980;28;20056;-59
2022/08/08 01:17:39;;;;;;;2.70;2.60;;;18.30;99.90;;;18.71;73.63;102401.94;5052348;28;20450;-59
2022/08/08 01:20:56;;;;;;;2.60;2.50;;;18.30;99.90;;;18.60;75.41;102394.03;4981391;28;20447;-59
2022/08/08 01:24:30;;;;;;;2.70;2.60;;;18.20;99.90;;;18.64;75.13;102400.25;5016417;28;20054;-60
2022/08/08 01:28:05;;;;;;;2.55;2.45;;;18.30;99.90;;;18.58;74.79;102401.19;5072397;28;20037;-59
2022/08/08 01:31:34;;;;;;;2.65;2.55;;;18.20;99.90;;;18.52;74.04;102406.66;5056159;28;20044;-59
2022/08/08 01:35:10;;;;;;;2.92;2.83;;;18.20;99.90;;;18.44;73.44;102403.19;5030320;28;20056;-59
2022/08/08 01:38:30;;;;;;;2.50;2.40;;;18.20;99.90;;;18.43;73.33;102401.38;5072225;28;20083;-59
2022/08/08 01:41:09;;;;;;;3.05;2.95;;;18.10;99.90;;;18.37;73.92;102395.22;5025285;28;20057;-59
2022/08/08 01:43:52;;;;;;;5.68;5.20;;;18.10;99.90;;;18.30;74.00;102397.06;5071939;28;20629;-59
2022/08/08 01:46:52;;;;;;;2.88;2.78;;;18.00;99.90;;;18.18;74.36;102397.19;5072070;28;20049;-59
2022/08/08 01:49:43;;;;;;;2.40;2.30;;;17.90;99.90;;;18.26;74.87;102397.09;5055338;28;20068;-59
2022/08/08 01:52:28;;;;;;;2.70;2.60;;;17.90;99.90;;;18.25;75.29;102401.59;5072007;28;20119;-59
2022/08/08 01:55:29;;;;;;;2.30;2.20;;;17.90;99.90;;;18.02;75.21;102366.16;5056172;28;20417;-59
2022/08/08 01:58:39;;;;;;;2.63;2.53;;;17.90;99.90;;;18.25;76.09;102400.69;5055108;28;20095;-59
2022/08/08 02:01:36;;;;;;;2.50;2.40;;;17.90;99.90;;;18.26;76.83;102403.34;5071495;28;20077;-59
2022/08/08 02:04:33;;;;;;;2.58;2.47;;;17.90;99.90;;;18.22;76.11;102396.25;5071374;28;20560;-59
2022/08/08 02:07:08;;;;;;;2.42;2.33;;;17.80;99.90;;;18.13;75.79;102399.03;5071617;28;20174;-59
2022/08/08 02:10:06;;;;;;;2.50;2.40;;;17.80;99.90;;;18.08;76.25;102400.88;5055097;28;20048;-59
2022/08/08 02:12:51;;;;;;;2.65;2.55;;;17.80;99.90;;;18.11;76.80;102400.84;5054651;28;20048;-59
2022/08/08 02:15:33;;;;;;;2.70;2.60;;;17.80;99.90;;;18.21;77.62;102405.22;5054860;28;20482;-59
2022/08/08 02:18:13;;;;;;;2.50;2.40;;;17.80;99.90;;;18.20;77.75;102391.81;5054818;28;20139;-59
2022/08/08 02:23:46;;;;;;;2.50;2.40;;;17.80;99.90;;;18.03;77.36;102405.41;5055551;28;20453;-59
2022/08/08 02:26:28;;;;;;;;;;;17.70;99.90;;;18.13;76.47;102412.44;5071425;28;20052;-59
2022/08/08 02:29:25;;;;;;;2.60;2.50;;;17.70;99.90;;;18.20;75.43;102390.03;5071303;28;20011;-59
2022/08/08 02:32:28;;;;;;;2.50;2.40;;;17.80;99.90;;;18.28;74.73;102412.25;5055520;28;20045;-59
2022/08/08 02:35:34;;;;;;;2.45;2.35;;;17.90;99.90;;;18.26;74.55;102407.81;5054562;28;20079;-59
2022/08/08 02:38:45;;;;;;;2.83;2.72;;;17.90;99.90;;;18.32;74.52;102408.66;5071093;28;20134;-59
2022/08/08 02:41:51;;;;;;;2.72;2.63;;;18.00;99.90;;;18.42;74.04;102412.09;5054384;28;20517;-58
2022/08/08 02:45:17;;;;;;;2.60;2.50;;;18.00;99.90;;;18.43;74.64;102420.16;5070724;28;20522;-59
2022/08/08 02:48:36;;;;;;;2.75;2.65;;;18.10;99.90;;;18.27;74.67;102415.88;5054480;28;20406;-59
2022/08/08 02:51:57;;;;;;;2.72;2.63;;;17.90;99.90;;;18.24;75.32;102410.53;5054084;28;20502;-59
2022/08/08 02:55:35;;;;;;;2.50;2.40;;;17.90;99.90;;;18.22;75.89;102420.38;5054085;28;20482;-59
2022/08/08 02:59:01;;;;;;;2.50;2.40;;;17.90;99.90;;;18.24;76.39;102410.53;5034140;28;20139;-59
2022/08/08 03:02:44;;;;;;;2.50;2.40;;;17.90;99.90;;;18.31;75.86;102412.22;5070680;28;20053;-59
2022/08/08 03:06:18;;;;;;;2.50;2.40;;;17.90;99.90;;;18.35;74.85;102427.34;5053792;28;20145;-59
2022/08/08 03:10:02;;;;;;;2.72;2.63;;;18.00;99.90;;;17.77;72.39;102428.84;5053892;28;20131;-59
2022/08/08 03:13:03;;;;;;;2.60;2.50;;;17.70;99.90;;;17.47;74.05;102418.38;5053834;28;20049;-59
2022/08/08 03:16:30;;;;;;;2.45;2.35;;;17.20;99.90;;;17.45;75.26;102425.53;5053385;28;20075;-59
2022/08/08 03:19:46;;;;;;;2.75;2.65;;;17.00;99.90;;;17.49;75.89;102421.97;5053707;28;20060;-59
2022/08/08 03:22:19;;;;;;;3.30;3.10;;;17.10;99.90;;;17.09;76.14;102350.00;5070510;28;20048;-59
2022/08/08 03:25:10;;;;;;;2.45;2.35;;;17.10;99.90;;;17.40;76.91;102403.28;5070252;28;20049;-59
2022/08/08 03:27:53;;;;;;;2.30;2.20;;;17.10;99.90;;;17.48;76.97;102423.75;5070470;28;20102;-59
2022/08/08 03:30:24;;;;;;;2.83;2.72;;;17.10;99.90;;;17.50;76.99;102432.66;5069980;28;20049;-59
2022/08/08 03:36:03;;;;;;;2.70;2.60;;;17.10;99.90;;;17.58;77.27;102425.44;5069554;28;20044;-59
2022/08/08 03:38:38;;;;;;;2.92;2.83;;;17.20;99.90;;;17.59;77.66;102429.03;5053413;28;20045;-59
2022/08/08 03:41:35;;;;;;;3.00;2.90;;;17.20;99.90;;;17.38;77.37;102432.69;5053286;28;20482;-59
2022/08/08 03:44:33;;;;;;;2.55;2.45;;;17.10;99.90;;;17.22;77.22;102427.47;5054564;28;20053;-59
2022/08/08 03:47:05;;;;;;;2.65;2.55;;;16.90;99.90;;;17.23;76.94;102434.63;5053171;28;20321;-59
2022/08/08 03:49:49;;;;;;;2.60;2.50;;;16.80;99.90;;;17.17;76.97;102428.41;5053097;28;20051;-58
2022/08/08 03:52:31;;;;;;;2.50;2.40;;;16.80;99.90;;;17.24;77.74;102431.03;5052714;28;20043;-58
2022/08/08 03:55:10;;;;;;;2.70;2.60;;;16.90;99.90;;;17.27;78.08;102423.88;5053042;28;20087;-58
2022/08/08 03:58:00;;;;;;;2.42;2.33;;;16.90;99.90;;;17.37;77.97;102430.94;5053211;28;20107;-60
2022/08/08 04:00:56;;;;;;;2.90;2.80;;;17.00;99.90;;;17.46;78.00;102438.03;5052848;28;20043;-58
2022/08/08 04:03:47;;;;;;;2.50;2.40;;;17.10;99.90;;;17.33;78.24;102420.25;5069507;28;20075;-59
2022/08/08 04:06:35;;;;;;;2.95;2.85;;;17.10;99.90;;;17.46;77.84;102446.06;5052746;28;20056;-59
2022/08/08 04:09:08;;;;;;;2.50;2.40;;;17.10;99.90;;;17.40;77.43;102443.41;5069463;28;20087;-60
2022/08/08 04:11:41;;;;;;;4.70;4.15;;;17.10;99.90;;;17.41;77.07;102442.50;5069280;28;20044;-59
2022/08/08 04:14:33;;;;;;;2.50;2.40;;;17.10;99.90;;;17.44;76.76;102442.50;5052387;28;20053;-59
2022/08/08 04:17:05;;;;;;;2.90;2.80;;;17.10;99.90;;;17.52;76.91;102452.25;5069279;28;20077;-58
2022/08/08 04:19:55;;;;;;;2.80;2.70;;;17.10;99.90;;;17.63;76.59;102452.19;5052584;28;20049;-59
2022/08/08 04:22:25;;;;;;;2.85;2.75;;;17.20;99.90;;;17.66;77.02;102449.47;5052591;28;20041;-59
2022/08/08 04:24:58;;;;;;;2.58;2.47;;;17.30;99.90;;;17.63;77.44;102452.19;5052451;28;20141;-59
2022/08/08 04:27:30;;;;;;;3.15;3.05;;;17.30;99.90;;;17.61;76.95;102449.53;5052346;28;20079;-58
2022/08/08 04:30:20;;;;;;;2.67;2.58;;;17.20;99.90;;;17.43;76.95;102454.09;5068932;28;20044;-59
2022/08/08 04:32:52;;;;;;;2.72;2.63;;;17.10;99.90;;;17.31;78.16;102448.81;5052287;28;20473;-58
2022/08/08 04:35:25;;;;;;;2.80;2.70;;;16.90;99.90;;;17.42;77.79;102455.00;5052292;28;20045;-59
2022/08/08 04:37:57;;;;;;;2.80;2.70;;;17.00;99.90;;;17.48;77.85;102465.66;5068884;28;20494;-58
2022/08/08 04:40:34;;;;;;;2.90;2.80;;;17.10;99.90;;;17.40;77.79;102460.34;5052174;28;20052;-58
2022/08/08 04:43:03;;;;;;;2.50;2.40;;;17.10;99.90;;;17.46;78.10;102464.78;5068595;28;20045;-59
2022/08/08 04:45:42;;;;;;;2.83;2.72;;;17.10;99.90;;;17.49;77.99;102471.03;5052137;28;20052;-59
2022/08/08 04:48:10;;;;;;;3.05;2.95;;;17.10;99.90;;;17.50;78.96;102471.94;5068130;28;20103;-59
2022/08/08 04:50:42;;;;;;;3.05;2.95;;;17.10;99.90;;;17.57;79.40;102446.88;5051974;28;20076;-59
2022/08/08 04:53:18;;;;;;;2.85;2.75;;;17.20;99.90;;;17.74;79.43;102469.94;5052021;28;20114;-59
2022/08/08 04:56:08;;;;;;;2.60;2.50;;;17.30;99.90;;;17.72;78.68;102469.06;5053618;28;20045;-59
2022/08/08 04:58:37;;;;;;;3.10;3.00;;;17.40;99.90;;;17.73;78.05;102469.97;5051920;28;20059;-59
2022/08/08 05:01:08;;;;;;;3.28;3.17;;;17.40;99.90;;;17.78;77.78;102473.47;5052844;28;20380;-58
2022/08/08 05:03:42;;;;;;;2.83;2.72;;;17.40;99.90;;;17.88;77.98;102472.50;5051893;28;20045;-59
2022/08/08 05:06:35;;;;;;;2.63;2.53;;;17.50;99.90;;;18.11;78.65;102477.63;5052010;28;20068;-59
2022/08/08 05:09:06;;;;;;;3.75;3.60;;;17.60;99.90;;;18.25;78.61;102481.97;5068610;28;20051;-59
2022/08/08 05:11:38;;;;;;;2.80;2.70;;;17.80;99.90;;;18.36;78.38;102484.53;5052689;28;20402;-59
2022/08/08 05:14:11;;;;;;;3.30;3.20;;;18.00;99.90;;;18.51;78.43;102485.28;5068513;28;20049;-58
2022/08/08 05:16:48;;;;;;;2.97;2.88;;;18.10;99.90;;;18.66;78.39;102482.41;5051768;28;20099;-58
2022/08/08 05:19:32;;;;;;;2.80;2.70;;;18.20;99.90;;;18.78;78.54;102481.38;5051813;28;20053;-59
2022/08/08 05:22:26;;;;;;;2.72;2.63;;;18.40;99.90;;;18.26;77.85;102373.88;5051755;28;20041;-59
2022/08/08 05:24:56;;;;;;;2.93;2.83;;;18.50;99.90;;;19.01;77.66;102486.47;5068375;28;20045;-58
2022/08/08 05:27:25;;;;;;;3.08;2.97;;;18.60;99.90;;;19.08;78.20;102493.50;5051647;28;20094;-59
2022/08/08 05:30:01;;;;;;;2.78;2.67;;;18.70;99.90;;;19.23;77.75;102487.94;5051656;28;20045;-59
2022/08/08 05:32:41;;;;;;;2.72;2.63;;;18.80;99.90;;;19.32;77.40;102479.72;5051632;28;20048;-58
2022/08/08 05:35:14;;;;;;;2.70;2.60;;;19.00;99.90;;;19.19;78.19;102419.13;5068106;28;20049;-59
2022/08/08 05:37:54;;;;;;;3.15;2.95;;;19.20;99.90;;;19.86;77.41;102495.03;5052648;28;20500;-59
2022/08/08 05:40:53;;;;;;;2.40;2.30;;;19.50;99.90;;;19.73;77.26;102456.75;5051400;28;20053;-59
2022/08/08 05:43:33;;;;;;;2.92;2.83;;;19.70;99.90;;;20.18;77.74;102508.84;5051534;28;20079;-59
2022/08/08 05:46:23;;;;;;;2.45;2.35;;;19.80;99.90;;;20.41;77.03;102503.94;5051601;28;20128;-60
2022/08/08 05:48:57;;;;;;;2.50;2.40;;;20.00;99.90;;;20.52;75.54;102504.59;5051454;28;20132;-59
2022/08/08 05:51:30;;;;;;;2.92;2.83;;;20.20;99.90;;;20.76;74.53;102510.41;5051267;28;20051;-59
2022/08/08 05:54:19;;;;;;;2.50;2.40;;;20.40;99.90;;;20.86;72.02;102509.31;5051372;28;20064;-59
2022/08/08 05:56:59;;;;;;;2.30;2.20;;;20.60;99.90;;;20.98;70.65;102515.31;5068234;28;20052;-59
2022/08/08 05:59:38;;;;;;;2.30;2.20;;;20.70;99.90;;;21.24;70.33;102517.47;5070374;28;20045;-58
2022/08/08 06:05:49;;;;;;;2.40;2.30;;;21.00;99.90;;;21.53;68.60;102507.84;5071688;28;20148;-58
2022/08/08 06:08:24;;;;;;;2.55;2.45;;;21.30;99.90;;;21.79;68.44;102517.09;5071832;28;20051;-59
2022/08/08 06:11:06;;;;;;;2.70;2.60;;;21.50;99.90;;;21.99;67.54;102525.63;5054886;28;20048;-59
2022/08/08 06:13:36;;;;;;;2.80;2.70;;;21.70;99.90;;;22.15;66.90;102527.88;5054803;28;20494;-59
2022/08/08 06:16:17;;;;;;;2.40;2.30;;;21.80;99.90;;;22.30;66.00;102532.88;5054786;28;20448;-59
2022/08/08 06:19:19;;;;;;;3.00;2.90;;;22.00;99.90;;;22.53;66.37;102536.78;5045445;28;20502;-59
2022/08/08 06:21:53;;;;;;;2.72;2.63;;;22.20;99.90;;;22.74;65.92;102542.50;5054625;28;20048;-60
2022/08/08 06:24:35;;;;;;;2.30;2.20;;;22.40;99.90;;;22.90;65.14;102542.97;5071519;28;20045;-60
2022/08/08 06:27:11;;;;;;;2.50;2.40;;;22.60;99.90;;;23.02;64.31;102551.56;5054608;28;20056;-60
2022/08/08 06:29:52;;;;;;;2.55;2.45;;;22.70;99.90;;;23.16;63.97;102543.06;5054549;28;20072;-60
2022/08/08 06:32:43;;;;;;;2.72;2.63;;;22.80;99.90;;;23.32;63.19;102544.41;5054378;28;20115;-58
2022/08/08 06:35:16;;;;;;;2.90;2.80;;;23.00;99.90;;;23.45;63.20;102543.09;5070934;28;20075;-58
2022/08/08 06:38:08;;;;;;;2.45;2.35;;;23.20;99.90;;;23.36;62.67;102526.28;5055888;28;20043;-59
2022/08/08 06:40:51;;;;;;;2.40;2.30;;;23.20;99.90;;;22.86;63.40;102552.94;5054290;28;20045;-59
2022/08/08 06:43:29;;;;;;;2.28;2.17;;;22.70;99.90;;;23.11;63.48;102553.13;5054063;28;20088;-59
2022/08/08 06:46:12;;;;;;;2.70;2.60;;;22.80;99.90;;;23.25;62.96;102548.19;5054189;28;20041;-58
2022/08/08 06:48:45;;;;;;;2.60;2.50;;;22.90;99.90;;;23.26;62.96;102553.56;5054199;28;20069;-59
2022/08/08 06:51:15;;;;;;;2.58;2.47;;;23.00;99.90;;;23.55;62.51;102558.09;5054270;28;20045;-59
2022/08/08 06:53:47;;;;;;;2.55;2.45;;;23.20;99.90;;;23.45;61.29;102547.63;5053978;28;20116;-59
2022/08/08 06:56:30;;;;;;;2.63;2.53;;;23.20;99.90;;;22.91;63.46;102550.09;5070626;28;20045;-59
2022/08/08 06:58:59;;;;;;;2.53;2.42;;;22.70;99.90;;;23.30;63.22;102548.94;5070410;28;20072;-61
2022/08/08 07:01:37;;;;;;;2.45;2.35;;;22.90;99.90;;;23.42;62.52;102542.31;5053975;28;20047;-61
2022/08/08 07:04:37;;;;;;;2.47;2.38;;;23.10;99.90;;;23.65;62.07;102554.19;5053926;28;20037;-61
2022/08/08 07:07:41;;;;;;;2.50;2.40;;;23.30;99.90;;;23.68;61.71;102547.78;5070587;28;20045;-61
2022/08/08 07:10:13;;;;;;;3.33;3.13;;;23.40;99.90;;;23.81;60.97;102557.28;5053217;28;20445;-61
2022/08/08 07:12:48;;;;;;;2.40;2.30;;;23.50;99.90;;;23.95;61.17;102555.88;5053729;28;20056;-60
2022/08/08 07:15:36;;;;;;;3.22;3.03;;;23.60;99.90;;;23.82;60.15;102554.53;5053688;28;20103;-61
2022/08/08 07:18:35;;;;;;;2.30;2.20;;;23.60;99.90;;;23.89;60.05;102564.19;5053573;28;20049;-61
2022/08/08 07:21:14;;;;;;;2.50;2.40;;;23.60;99.90;;;24.00;60.06;102562.00;5053573;28;20410;-60
2022/08/08 07:23:54;;;;;;;;;;;23.70;99.90;;;24.04;59.46;102571.81;5054095;28;20094;-60
2022/08/08 07:26:40;;;;;;;2.10;2.00;;;23.80;99.90;;;24.02;59.76;102562.03;5053749;28;19920;-60
2022/08/08 07:29:11;;;;;;;2.20;2.10;;;23.80;99.90;;;24.26;59.88;102565.69;5070220;28;20049;-60
2022/08/08 07:31:59;;;;;;;5.88;5.47;;;24.00;99.90;;;24.30;58.87;102572.78;5053313;28;20040;-61
2022/08/08 07:34:30;;;;;;;38.80;4.22;;;24.10;99.90;;;24.37;59.59;102574.34;5053317;28;20057;-60
2022/08/08 07:37:07;;;;;;;2.25;2.15;;;24.10;99.90;;;24.51;58.92;102580.16;5053261;28;20053;-60
2022/08/08 07:39:44;;;;;;;1.70;1.70;;;24.30;99.90;;;24.63;58.84;102583.31;5053276;28;20092;-60
2022/08/08 07:42:32;;;;;;;2.30;2.20;;;24.40;99.90;;;24.64;56.98;102585.06;5053227;28;20135;-60
2022/08/08 07:45:06;;;;;;;2.33;2.22;;;24.50;99.90;;;24.67;56.74;102582.28;5053251;28;20087;-60
2022/08/08 07:47:39;;;;;;;2.20;2.10;;;24.40;99.90;;;24.69;57.13;102584.94;5052797;28;20048;-60
2022/08/08 07:50:16;;;;;;;2.15;2.05;;;24.40;99.90;;;24.58;57.01;102587.13;5052879;28;20048;-60
2022/08/08 07:52:57;;;;;;;2.28;2.17;;;24.40;99.90;;;24.41;56.60;102582.28;5069555;28;20053;-60
2022/08/08 07:55:29;;;;;;;2.13;2.03;;;24.20;99.90;;;24.18;57.34;102564.16;5069622;28;20121;-60
2022/08/08 07:58:16;;;;;;;3.22;3.05;;;24.10;99.90;;;23.88;58.68;102581.38;5052658;28;20067;-60
2022/08/08 08:00:50;;;;;;;2.60;2.50;;;23.80;99.90;;;24.11;59.22;102595.06;5052984;28;20072;-60
2022/08/08 08:03:31;;;;;;;2.42;2.33;;;23.70;99.90;;;24.36;59.04;102595.09;5069478;28;20049;-59
2022/08/08 08:06:14;;;;;;;2.30;2.20;;;23.90;99.90;;;24.48;58.03;102597.41;5052814;28;20041;-61
2022/08/08 08:08:51;;;;;;;2.17;2.08;;;24.20;99.90;;;24.73;58.36;102608.28;5052729;28;20475;-61
2022/08/08 08:11:26;;;;;;;2.10;2.00;;;24.40;99.90;;;24.95;57.71;102606.59;5069483;28;20479;-60
2022/08/08 08:14:24;;;;;;;1.98;1.88;;;24.70;99.90;;;25.25;57.54;102597.31;5053615;28;20457;-60
2022/08/08 08:16:53;;;;;;;2.25;2.15;;;25.00;99.90;;;25.23;56.55;102601.91;5053916;28;20044;-60
2022/08/08 08:19:31;;;;;;;11.43;3.95;;;25.00;99.90;;;25.43;56.78;102601.19;5052603;28;20415;-61
2022/08/08 08:22:17;;;;;;;18.90;6.85;;;25.20;99.90;;;25.65;55.96;102615.66;5051262;28;20419;-61
2022/08/08 08:25:03;;;;;;;2.50;2.40;;;25.40;99.90;;;25.52;54.82;102620.69;5069085;28;20131;-61
2022/08/08 08:27:38;;;;;;;2.10;2.00;;;25.40;99.90;;;25.67;55.12;102622.78;5052367;28;20486;-61
2022/08/08 08:30:16;;;;;;;1.75;1.75;;;25.50;99.90;;;25.27;54.11;102610.78;5053516;28;20075;-61
2022/08/08 08:32:45;;;;;;;2.38;2.22;;;25.20;99.90;;;25.51;55.16;102610.75;5052274;28;20379;-60
2022/08/08 08:35:21;;;;;;;1.70;1.70;;;25.20;99.90;;;25.62;54.67;102613.06;5052204;28;20552;-61
2022/08/08 08:38:10;;;;;;;1.70;1.70;;;25.30;99.90;;;25.51;53.48;102626.16;5052199;28;20345;-61
2022/08/08 08:40:47;;;;;;;1.70;1.70;;;25.30;99.90;;;25.55;54.01;102625.97;5052193;28;20048;-62
2022/08/08 08:43:20;;;;;;;2.03;1.92;;;25.30;99.90;;;25.48;54.34;102624.44;5051862;28;20053;-61
2022/08/08 08:46:01;;;;;;;2.03;1.92;;;25.20;99.90;;;25.32;54.11;102623.22;5052127;28;20098;-61
2022/08/08 08:48:34;;;;;;;2.10;2.00;;;25.10;99.90;;;25.43;53.65;102618.34;5052030;28;20454;-61
2022/08/08 08:51:05;;;;;;;2.08;1.98;;;25.10;99.90;;;25.50;54.04;102621.69;5053298;28;20049;-61
2022/08/08 08:53:37;;;;;;;2.03;1.92;;;25.20;99.90;;;25.61;54.30;102620.31;5052221;28;20057;-61
2022/08/08 08:56:28;;;;;;;1.63;1.63;;;25.40;99.90;;;25.86;54.89;102615.69;5052148;28;20135;-61
2022/08/08 08:59:05;;;;;;;2.10;2.00;;;25.50;99.90;;;25.35;54.21;102525.56;5051973;28;20049;-61
2022/08/08 09:01:42;;;;;;;2.40;2.30;;;25.60;99.90;;;25.87;53.54;102616.59;5051898;28;20446;-61
2022/08/08 09:04:26;;;;;;;2.17;2.08;;;25.70;99.90;;;25.99;53.71;102620.63;5051858;28;20518;-60
2022/08/08 09:07:12;;;;;;;2.20;2.10;;;25.80;99.90;;;26.22;53.34;102626.03;5068523;28;20052;-61
2022/08/08 09:09:50;;;;;;;1.70;1.70;;;25.90;99.90;;;26.11;52.43;102623.78;5051904;28;20412;-61
2022/08/08 09:12:29;;;;;;;1.92;1.88;;;25.90;99.90;;;26.16;52.79;102623.56;5051914;28;20040;-62
2022/08/08 09:14:59;;;;;;;1.60;1.60;;;25.90;99.90;;;26.22;52.59;102621.50;5051755;28;20045;-62
2022/08/08 09:17:38;;;;;;;1.70;1.70;;;26.00;99.90;;;26.29;52.45;102625.72;5068270;28;20049;-62
2022/08/08 09:20:23;;;;;;;1.77;1.77;;;26.00;99.90;;;26.18;52.34;102632.53;5051854;28;20071;-62
2022/08/08 09:23:14;;;;;;;1.70;1.70;;;26.00;99.90;;;26.11;52.64;102634.63;5052040;28;20049;-63
2022/08/08 09:25:52;;;;;;;2.00;1.90;;;25.90;99.90;;;25.96;52.75;102620.78;5051761;28;20041;-62
2022/08/08 09:28:29;;;;;;;1.80;1.80;;;25.70;99.90;;;25.79;52.74;102611.47;5068631;28;20045;-61
2022/08/08 09:31:15;;;;;;;2.00;1.90;;;25.70;99.90;;;26.04;53.33;102626.75;5068616;28;20045;-61
2022/08/08 09:33:53;;;;;;;2.20;2.10;;;25.70;99.90;;;26.22;52.57;102634.16;5069404;28;20056;-61
2022/08/08 09:36:46;;;;;;;2.60;2.40;;;25.90;99.90;;;26.12;52.23;102628.25;5056997;28;20037;-61
2022/08/08 09:39:52;;;;;;;2.05;1.95;;;25.90;99.90;;;25.83;52.09;102631.22;5056895;28;20067;-61
2022/08/08 09:42:23;;;;;;;1.63;1.63;;;25.70;99.90;;;25.72;51.91;102636.19;5072167;28;20437;-62
2022/08/08 09:45:06;;;;;;;2.13;2.03;;;25.50;99.90;;;25.60;52.65;102639.38;5056999;28;20049;-62
2022/08/08 09:47:43;;;;;;;2.10;2.00;;;25.30;99.90;;;25.56;52.92;102637.72;5056426;28;20433;-62
2022/08/08 09:50:34;;;;;;;2.20;2.10;;;25.30;99.90;;;25.47;52.25;102606.44;5056981;28;20037;-62
2022/08/08 09:53:18;;;;;;;1.90;1.83;;;25.30;99.90;;;25.58;51.74;102636.72;5056756;28;20045;-62
2022/08/08 09:56:10;;;;;;;2.20;2.10;;;25.30;99.90;;;25.56;51.84;102626.88;5056135;28;20037;-61
2022/08/08 09:58:57;;;;;;;2.00;1.90;;;25.30;99.90;;;25.56;51.97;102616.91;5056196;28;20056;-60
2022/08/08 10:01:28;;;;;;;1.75;1.75;;;25.30;99.90;;;25.83;51.87;102621.25;5056389;28;20041;-61
2022/08/08 10:04:21;;;;;;;2.40;2.30;;;25.50;99.90;;;25.62;51.84;102545.28;5056446;28;20131;-61
2022/08/08 10:07:14;;;;;;;2.03;1.92;;;25.70;99.90;;;26.33;50.90;102632.78;5056178;28;20487;-61
2022/08/08 10:09:44;;;;;;;2.28;2.17;;;26.00;99.90;;;26.25;48.86;102628.63;5056281;28;20127;-61
2022/08/08 10:12:34;;;;;;;1.77;1.77;;;26.00;99.90;;;26.35;49.50;102598.31;5056156;28;20136;-60
2022/08/08 10:15:21;;;;;;;2.20;2.10;;;26.20;99.90;;;26.48;48.38;102623.13;5055957;28;20451;-60
2022/08/08 10:17:54;;;;;;;1.80;1.80;;;26.30;99.90;;;26.55;47.12;102632.75;5056561;28;20064;-60
2022/08/08 10:20:45;;;;;;;2.13;2.03;;;26.30;99.90;;;26.60;47.45;102626.19;5056437;28;20059;-60
2022/08/08 10:23:42;;;;;;;2.00;1.90;;;26.40;99.90;;;26.42;47.50;102609.81;5056034;28;20049;-60
2022/08/08 10:26:28;;;;;;;1.63;1.63;;;26.30;99.90;;;25.89;48.75;102572.19;5055965;28;20045;-59
2022/08/08 10:29:23;;;;;;;2.20;2.10;;;26.00;99.90;;;26.34;47.56;102625.53;5055698;28;20406;-64
2022/08/08 10:34:52;;;;;;;2.03;1.90;;;26.00;99.90;;;26.28;47.28;102647.50;5055491;28;20099;-60
2022/08/08 10:37:30;;;;;;;2.30;2.20;;;26.10;99.90;;;25.73;48.53;102619.84;5055534;28;20041;-59
2022/08/08 10:40:15;;;;;;;4.38;4.03;;;25.60;99.90;;;25.16;49.34;102622.06;5055478;28;20049;-59
2022/08/08 10:42:53;;;;;;;2.30;2.20;;;25.00;99.90;;;25.40;49.49;102613.00;5055479;28;20060;-65
2022/08/08 10:45:23;;;;;;;2.47;2.38;;;25.10;99.90;;;25.37;50.24;102594.13;5055025;28;20077;-59
2022/08/08 10:47:58;;;;;;;2.55;2.45;;;25.20;99.90;;;25.62;49.40;102611.25;5055388;28;20053;-59
2022/08/08 10:50:35;;;;;;;2.40;2.30;;;25.40;99.90;;;26.07;50.18;102624.84;5055351;28;20045;-60
2022/08/08 10:53:08;;;;;;;2.22;2.13;;;25.80;99.90;;;26.29;49.24;102619.38;5055254;28;20041;-60
2022/08/08 10:55:41;;;;;;;2.45;2.35;;;26.00;99.90;;;26.51;47.83;102615.72;5055447;28;20048;-60
2022/08/08 10:58:14;;;;;;;2.00;1.90;;;26.40;99.90;;;26.56;47.34;102623.66;5055357;28;20049;-60
2022/08/08 11:00:45;;;;;;;2.05;1.95;;;26.40;99.90;;;25.90;47.70;102600.16;5070593;28;20571;-60
2022/08/08 11:03:40;;;;;;;3.03;2.85;;;26.00;99.90;;;26.06;47.72;102616.75;5055356;28;20128;-60
2022/08/08 11:06:33;;;;;;;2.13;2.03;;;25.90;99.90;;;26.00;47.69;102622.41;5055001;28;20128;-61
2022/08/08 11:09:05;;;;;;;2.55;2.45;;;25.80;99.90;;;26.13;47.87;102621.00;5055315;28;20291;-61
2022/08/08 11:11:51;;;;;;;1.95;1.85;;;25.90;99.90;;;26.41;47.36;102610.75;5054897;28;20071;-60
2022/08/08 11:14:50;;;;;;;2.00;1.90;;;26.20;99.90;;;26.60;46.82;102619.84;5054728;28;20041;-60
2022/08/08 11:17:23;;;;;;;2.15;2.05;;;26.40;99.90;;;26.17;46.67;102554.81;5054885;28;20107;-60
2022/08/08 11:20:14;;;;;;;2.30;2.20;;;26.40;99.90;;;26.51;46.14;102614.84;5054629;28;20234;-60
2022/08/08 11:22:51;;;;;;;2.10;2.00;;;26.40;99.90;;;26.49;46.56;102605.88;5054565;28;20048;-60
2022/08/08 11:25:24;;;;;;;2.13;2.03;;;26.30;99.90;;;26.49;46.57;102604.03;5055199;28;20060;-60
2022/08/08 11:28:16;;;;;;;1.80;1.80;;;26.30;99.90;;;26.64;46.66;102618.78;5054731;28;20088;-59
2022/08/08 11:30:48;;;;;;;1.80;1.80;;;26.40;99.90;;;26.66;46.50;102620.50;5054429;28;20064;-60
2022/08/08 11:33:23;;;;;;;2.10;2.00;;;26.40;99.90;;;26.67;46.30;102622.22;5054731;28;20391;-60
2022/08/08 11:36:13;;;;;;;2.03;1.92;;;26.40;99.90;;;26.75;45.10;102616.53;5054306;28;20099;-60
2022/08/08 11:38:42;;;;;;;;;;;26.50;99.90;;;26.84;45.82;102579.91;5054747;28;20098;-60
2022/08/08 11:41:23;;;;;;;1.88;1.88;;;26.70;99.90;;;27.24;45.14;102610.63;5054421;28;20011;-60
2022/08/08 11:43:54;;;;;;;2.03;1.93;;;27.00;99.90;;;27.37;44.57;102611.88;5054581;28;20505;-60
2022/08/08 11:46:27;;;;;;;1.58;1.58;;;27.20;99.90;;;27.55;45.26;102607.41;5054231;28;20099;-60